Time,TemperatureF,DewpointF,PressureIn,WindDirection,WindDirectionDegrees,WindSpeedMPH,WindSpeedGustMPH,Humidity,HourlyPrecipIn,Conditions,Clouds,dailyrainin,SolarRadiationWatts/m^2,SoftwareType,DateUTC
2013-02-15 00:01:00,36.0,24.0,-100.00,SE,137,2.0,6.0,59,-99.99,,,0.00,0.000000,,2013-02-15 07:01:00,
2013-02-15 00:11:00,36.0,24.0,-100.00,SE,137,2.0,6.0,59,-99.99,,,0.00,0.000000,,2013-02-15 07:11:00,
2013-02-15 00:41:00,36.0,25.0,-100.00,SE,140,3.0,6.0,64,-99.99,,,0.00,0.000000,,2013-02-15 07:41:00,
2013-02-15 00:52:00,36.0,25.0,-100.00,SE,140,3.0,6.0,64,-99.99,,,0.00,0.000000,,2013-02-15 07:52:00,
2013-02-15 01:01:00,36.0,25.0,-100.00,SE,140,3.0,6.0,64,-99.99,,,0.00,0.000000,,2013-02-15 08:01:00,
2013-02-15 01:11:00,36.0,25.0,-100.00,SE,140,3.0,6.0,64,-99.99,,,0.00,0.000000,,2013-02-15 08:11:00,
2013-02-15 01:41:00,34.0,27.0,-100.00,SE,129,3.0,5.0,75,-99.99,,,0.00,0.000000,,2013-02-15 08:41:00,
2013-02-15 01:53:00,34.0,27.0,-100.00,SE,129,3.0,5.0,75,-99.99,,,0.00,0.000000,,2013-02-15 08:53:00,
2013-02-15 02:01:00,34.0,27.0,-100.00,SE,129,3.0,5.0,75,-99.99,,,0.00,0.000000,,2013-02-15 09:01:00,
2013-02-15 02:12:00,34.0,27.0,-100.00,SE,129,3.0,5.0,75,-99.99,,,0.00,0.000000,,2013-02-15 09:12:00,
2013-02-15 02:41:00,35.0,25.0,-100.00,South,180,1.0,4.0,66,-99.99,,,0.00,0.000000,,2013-02-15 09:41:00,
2013-02-15 02:52:00,35.0,25.0,-100.00,South,180,1.0,4.0,66,-99.99,,,0.00,0.000000,,2013-02-15 09:52:00,
2013-02-15 03:01:00,35.0,25.0,-100.00,South,180,1.0,4.0,66,-99.99,,,0.00,0.000000,,2013-02-15 10:01:00,
2013-02-15 03:11:00,35.0,25.0,-100.00,South,180,1.0,4.0,66,-99.99,,,0.00,0.000000,,2013-02-15 10:11:00,
2013-02-15 03:41:00,33.0,26.0,-100.00,West,274,0.0,0.0,75,-99.99,,,0.00,0.000000,,2013-02-15 10:41:00,
2013-02-15 03:52:00,33.0,26.0,-100.00,West,274,0.0,0.0,75,-99.99,,,0.00,0.000000,,2013-02-15 10:52:00,
2013-02-15 04:01:00,33.0,26.0,-100.00,West,274,0.0,0.0,75,-99.99,,,0.00,0.000000,,2013-02-15 11:01:00,
2013-02-15 04:11:00,33.0,26.0,-100.00,West,274,0.0,0.0,75,-99.99,,,0.00,0.000000,,2013-02-15 11:11:00,
2013-02-15 04:42:00,34.0,27.0,-100.00,SSE,148,3.0,9.0,74,-99.99,,,0.00,0.000000,,2013-02-15 11:42:00,
2013-02-15 04:52:00,34.0,27.0,-100.00,SSE,148,3.0,9.0,74,-99.99,,,0.00,0.000000,,2013-02-15 11:52:00,
2013-02-15 05:01:00,34.0,27.0,-100.00,SSE,148,3.0,9.0,74,-99.99,,,0.00,0.000000,,2013-02-15 12:01:00,
2013-02-15 05:11:00,34.0,27.0,-100.00,SSE,148,3.0,9.0,74,-99.99,,,0.00,0.000000,,2013-02-15 12:11:00,
2013-02-15 05:42:00,34.0,26.0,-100.00,ESE,109,2.0,4.0,72,-99.99,,,0.00,0.000000,,2013-02-15 12:42:00,
2013-02-15 05:52:00,34.0,26.0,-100.00,ESE,109,2.0,4.0,72,-99.99,,,0.00,0.000000,,2013-02-15 12:52:00,
2013-02-15 06:02:00,34.0,26.0,-100.00,ESE,109,2.0,4.0,72,-99.99,,,0.00,0.000000,,2013-02-15 13:02:00,
2013-02-15 06:11:00,34.0,26.0,-100.00,ESE,109,2.0,4.0,72,-99.99,,,0.00,0.000000,,2013-02-15 13:11:00,
2013-02-15 06:41:00,34.0,26.0,-100.00,SE,131,3.0,5.0,73,-99.99,,,0.00,0.000000,,2013-02-15 13:41:00,
2013-02-15 06:52:00,34.0,26.0,-100.00,SE,131,3.0,5.0,73,-99.99,,,0.00,0.000000,,2013-02-15 13:52:00,
2013-02-15 07:01:00,34.0,26.0,-100.00,SE,131,3.0,5.0,73,-99.99,,,0.00,0.000000,,2013-02-15 14:01:00,
2013-02-15 07:11:00,34.0,26.0,-100.00,SE,131,3.0,5.0,73,-99.99,,,0.00,0.000000,,2013-02-15 14:11:00,
2013-02-15 07:41:00,32.0,25.0,-100.00,SSE,149,1.0,3.0,74,-99.99,,,0.00,0.000000,,2013-02-15 14:41:00,
2013-02-15 07:52:00,32.0,25.0,-100.00,SSE,149,1.0,3.0,74,-99.99,,,0.00,0.000000,,2013-02-15 14:52:00,
2013-02-15 08:01:00,32.0,25.0,-100.00,SSE,149,1.0,3.0,74,-99.99,,,0.00,0.000000,,2013-02-15 15:01:00,
2013-02-15 08:11:00,32.0,25.0,-100.00,SSE,149,1.0,3.0,74,-99.99,,,0.00,0.000000,,2013-02-15 15:11:00,
2013-02-15 08:42:00,32.0,25.0,-100.00,North,0,0.0,0.0,77,-99.99,,,0.00,26.030001,,2013-02-15 15:42:00,
2013-02-15 08:52:00,32.0,25.0,-100.00,North,0,0.0,0.0,77,-99.99,,,0.00,26.030001,,2013-02-15 15:52:00,
2013-02-15 09:01:00,32.0,25.0,-100.00,North,0,0.0,0.0,77,-99.99,,,0.00,26.030001,,2013-02-15 16:01:00,
2013-02-15 09:11:00,32.0,25.0,-100.00,North,0,0.0,0.0,77,-99.99,,,0.00,26.030001,,2013-02-15 16:11:00,
2013-02-15 09:42:00,33.0,27.0,-100.00,North,0,0.0,0.0,79,-99.99,,,0.00,95.070000,,2013-02-15 16:42:00,
2013-02-15 09:52:00,33.0,27.0,-100.00,North,0,0.0,0.0,79,-99.99,,,0.00,95.070000,,2013-02-15 16:52:00,
2013-02-15 10:01:00,33.0,27.0,-100.00,North,0,0.0,0.0,79,-99.99,,,0.00,95.070000,,2013-02-15 17:01:00,
2013-02-15 10:11:00,33.0,27.0,-100.00,North,0,0.0,0.0,79,-99.99,,,0.00,95.070000,,2013-02-15 17:11:00,
2013-02-15 10:32:00,36.0,29.0,-100.00,SSE,149,2.0,3.0,75,-99.99,,,0.00,136.559998,,2013-02-15 17:32:00,
2013-02-15 10:41:00,36.0,29.0,-100.00,SSE,149,2.0,3.0,75,-99.99,,,0.00,136.559998,,2013-02-15 17:41:00,
2013-02-15 10:52:00,36.0,29.0,-100.00,SSE,149,2.0,3.0,75,-99.99,,,0.00,136.559998,,2013-02-15 17:52:00,
2013-02-15 11:01:00,36.0,29.0,-100.00,SSE,149,2.0,3.0,75,-99.99,,,0.00,136.559998,,2013-02-15 18:01:00,
2013-02-15 11:11:00,36.0,29.0,-100.00,SSE,149,2.0,3.0,75,-99.99,,,0.00,136.559998,,2013-02-15 18:11:00,
2013-02-15 11:41:00,44.0,26.0,-100.00,South,175,5.0,11.0,49,-99.99,,,0.00,428.149994,,2013-02-15 18:41:00,
2013-02-15 11:52:00,44.0,26.0,-100.00,South,175,5.0,11.0,49,-99.99,,,0.00,428.149994,,2013-02-15 18:52:00,
2013-02-15 12:01:00,44.0,26.0,-100.00,South,175,5.0,11.0,49,-99.99,,,0.00,428.149994,,2013-02-15 19:01:00,
2013-02-15 12:11:00,44.0,26.0,-100.00,South,175,5.0,11.0,49,-99.99,,,0.00,428.149994,,2013-02-15 19:11:00,
2013-02-15 12:41:00,45.0,26.0,-100.00,South,175,5.0,13.0,46,-99.99,,,0.00,474.989990,,2013-02-15 19:41:00,
2013-02-15 12:52:00,45.0,26.0,-100.00,South,175,5.0,13.0,46,-99.99,,,0.00,474.989990,,2013-02-15 19:52:00,
2013-02-15 13:01:00,45.0,26.0,-100.00,South,175,5.0,13.0,46,-99.99,,,0.00,474.989990,,2013-02-15 20:01:00,
2013-02-15 13:11:00,45.0,26.0,-100.00,South,175,5.0,13.0,46,-99.99,,,0.00,474.989990,,2013-02-15 20:11:00,
2013-02-15 13:42:00,47.0,27.0,-100.00,South,176,6.0,13.0,43,-99.99,,,0.00,632.700012,,2013-02-15 20:42:00,
2013-02-15 13:52:00,47.0,27.0,-100.00,South,176,6.0,13.0,43,-99.99,,,0.00,632.700012,,2013-02-15 20:52:00,
2013-02-15 14:01:00,47.0,27.0,-100.00,South,176,6.0,13.0,43,-99.99,,,0.00,632.700012,,2013-02-15 21:01:00,
2013-02-15 14:11:00,47.0,27.0,-100.00,South,176,6.0,13.0,43,-99.99,,,0.00,632.700012,,2013-02-15 21:11:00,
2013-02-15 15:11:00,49.0,27.0,-100.00,South,173,5.0,14.0,43,-99.99,,,0.00,489.869995,,2013-02-15 22:11:00,
2013-02-15 15:41:00,49.0,28.0,-100.00,South,170,6.0,12.0,42,-99.99,,,0.00,400.029999,,2013-02-15 22:41:00,
2013-02-15 15:52:00,49.0,28.0,-100.00,South,170,6.0,12.0,42,-99.99,,,0.00,400.029999,,2013-02-15 22:52:00,
2013-02-15 16:02:00,49.0,28.0,-100.00,South,170,6.0,12.0,42,-99.99,,,0.00,400.029999,,2013-02-15 23:02:00,
2013-02-15 16:11:00,49.0,28.0,-100.00,South,170,6.0,12.0,42,-99.99,,,0.00,400.029999,,2013-02-15 23:11:00,
2013-02-15 16:31:00,50.0,27.0,-100.00,SW,228,2.0,6.0,40,-99.99,,,0.00,263.820007,,2013-02-15 23:31:00,
2013-02-15 16:42:00,50.0,27.0,-100.00,SW,228,2.0,6.0,40,-99.99,,,0.00,263.820007,,2013-02-15 23:42:00,
2013-02-15 16:52:00,50.0,27.0,-100.00,SW,228,2.0,6.0,40,-99.99,,,0.00,263.820007,,2013-02-15 23:52:00,
2013-02-15 17:02:00,50.0,27.0,-100.00,SW,228,2.0,6.0,40,-99.99,,,0.00,263.820007,,2013-02-16 00:02:00,
2013-02-15 17:11:00,50.0,27.0,-100.00,SW,228,2.0,6.0,40,-99.99,,,0.00,263.820007,,2013-02-16 00:11:00,
2013-02-15 17:41:00,48.0,30.0,-100.00,NW,315,1.0,3.0,50,-99.99,,,0.00,39.860001,,2013-02-16 00:41:00,
2013-02-15 17:52:00,48.0,30.0,-100.00,NW,315,1.0,3.0,50,-99.99,,,0.00,39.860001,,2013-02-16 00:52:00,
2013-02-15 18:02:00,48.0,30.0,-100.00,NW,315,1.0,3.0,50,-99.99,,,0.00,39.860001,,2013-02-16 01:02:00,
2013-02-15 18:11:00,48.0,30.0,-100.00,NW,315,1.0,3.0,50,-99.99,,,0.00,39.860001,,2013-02-16 01:11:00,
2013-02-15 18:41:00,42.0,29.0,-100.00,ENE,66,1.0,3.0,59,-99.99,,,0.00,3.490000,,2013-02-16 01:41:00,
2013-02-15 18:52:00,42.0,29.0,-100.00,ENE,66,1.0,3.0,59,-99.99,,,0.00,3.490000,,2013-02-16 01:52:00,
2013-02-15 19:01:00,42.0,29.0,-100.00,ENE,66,1.0,3.0,59,-99.99,,,0.00,3.490000,,2013-02-16 02:01:00,
2013-02-15 19:11:00,42.0,29.0,-100.00,ENE,66,1.0,3.0,59,-99.99,,,0.00,3.490000,,2013-02-16 02:11:00,
2013-02-15 19:42:00,35.0,28.0,-100.00,ESE,116,2.0,3.0,76,-99.99,,,0.00,0.000000,,2013-02-16 02:42:00,
2013-02-15 19:52:00,35.0,28.0,-100.00,ESE,116,2.0,3.0,76,-99.99,,,0.00,0.000000,,2013-02-16 02:52:00,
2013-02-15 20:01:00,35.0,28.0,-100.00,ESE,116,2.0,3.0,76,-99.99,,,0.00,0.000000,,2013-02-16 03:01:00,
2013-02-15 20:11:00,35.0,28.0,-100.00,ESE,116,2.0,3.0,76,-99.99,,,0.00,0.000000,,2013-02-16 03:11:00,
2013-02-15 20:41:00,34.0,27.0,-100.00,ESE,121,2.0,3.0,77,-99.99,,,0.00,0.000000,,2013-02-16 03:41:00,
2013-02-15 20:52:00,34.0,27.0,-100.00,ESE,121,2.0,3.0,77,-99.99,,,0.00,0.000000,,2013-02-16 03:52:00,
2013-02-15 21:01:00,34.0,27.0,-100.00,ESE,121,2.0,3.0,77,-99.99,,,0.00,0.000000,,2013-02-16 04:01:00,
2013-02-15 21:11:00,34.0,27.0,-100.00,ESE,121,2.0,3.0,77,-99.99,,,0.00,0.000000,,2013-02-16 04:11:00,
2013-02-15 21:41:00,32.0,28.0,-100.00,ESE,118,1.0,4.0,83,-99.99,,,0.00,0.000000,,2013-02-16 04:41:00,
2013-02-15 21:52:00,32.0,28.0,-100.00,ESE,118,1.0,4.0,83,-99.99,,,0.00,0.000000,,2013-02-16 04:52:00,
2013-02-15 22:01:00,32.0,28.0,-100.00,ESE,118,1.0,4.0,83,-99.99,,,0.00,0.000000,,2013-02-16 05:01:00,
2013-02-15 22:11:00,32.0,28.0,-100.00,ESE,118,1.0,4.0,83,-99.99,,,0.00,0.000000,,2013-02-16 05:11:00,
2013-02-15 22:42:00,31.0,27.0,-100.00,ESE,120,2.0,4.0,84,-99.99,,,0.00,0.000000,,2013-02-16 05:42:00,
2013-02-15 22:52:00,31.0,27.0,-100.00,ESE,120,2.0,4.0,84,-99.99,,,0.00,0.000000,,2013-02-16 05:52:00,
2013-02-15 23:01:00,31.0,27.0,-100.00,ESE,120,2.0,4.0,84,-99.99,,,0.00,0.000000,,2013-02-16 06:01:00,
2013-02-15 23:11:00,31.0,27.0,-100.00,ESE,120,2.0,4.0,84,-99.99,,,0.00,0.000000,,2013-02-16 06:11:00,
2013-02-15 23:42:00,28.0,25.0,-100.00,SSE,167,2.0,4.0,88,-99.99,,,0.00,0.000000,,2013-02-16 06:42:00,
2013-02-15 23:52:00,28.0,25.0,-100.00,SSE,167,2.0,4.0,88,-99.99,,,0.00,0.000000,,2013-02-16 06:52:00,